Time;durP1;ratioP1;P1;durP2;ratioP2;P2;SDS_P1;SDS_P2;PMS_P1;PMS_P2;Temp;Humidity;BMP_temperature;BMP_pressure;BME280_temperature;BME280_humidity;BME280_pressure;Samples;Min_cycle;Max_cycle;Signal;HPM_P1;HPM_P2
2022/11/20 00:00:30;;;;;;;6.55;4.30;;;;;;;3.59;100.00;95288.59;1023527;28;20027;-67
2022/11/20 00:01:13;;;;;;;8.82;4.40;;;;;;;3.61;100.00;95285.75;1031328;28;20022;-68
2022/11/20 00:01:44;;;;;;;9.10;4.72;;;;;;;3.60;100.00;95291.97;1031083;28;20391;-68
2022/11/20 00:02:14;;;;;;;9.02;5.13;;;;;;;3.60;100.00;95289.38;1036485;28;20277;-69
2022/11/20 00:02:45;;;;;;;10.15;5.18;;;;;;;3.54;100.00;95278.09;1043235;28;20091;-68
2022/11/20 00:03:15;;;;;;;8.73;4.65;;;;;;;3.58;100.00;95283.59;1039310;28;20425;-67
2022/11/20 00:03:46;;;;;;;7.65;4.65;;;;;;;3.58;100.00;95286.97;1042833;28;20029;-68
2022/11/20 00:04:16;;;;;;;7.68;4.53;;;;;;;3.57;100.00;95290.59;1037405;28;20124;-69
2022/11/20 00:04:46;;;;;;;6.70;4.53;;;;;;;3.59;100.00;95292.97;1039354;28;20130;-68
2022/11/20 00:05:18;;;;;;;8.10;5.15;;;;;;;3.58;100.00;95292.16;1043660;28;20005;-68
2022/11/20 00:05:48;;;;;;;6.50;4.55;;;;;;;3.54;100.00;95280.69;1039573;28;20026;-67
2022/11/20 00:06:19;;;;;;;6.57;4.57;;;;;;;3.57;100.00;95287.22;1035085;28;20351;-68
2022/11/20 00:06:49;;;;;;;10.35;4.93;;;;;;;3.59;100.00;95288.59;1031296;28;20531;-68
2022/11/20 00:07:20;;;;;;;8.90;4.50;;;;;;;3.59;100.00;95288.59;1033361;28;20385;-70
2022/11/20 00:07:50;;;;;;;9.88;4.95;;;;;;;3.60;100.00;95284.97;1039663;28;20025;-67
2022/11/20 00:08:21;;;;;;;6.93;4.70;;;;;;;3.57;100.00;95289.81;1030852;28;20038;-68
2022/11/20 00:08:56;;;;;;;7.00;4.65;;;;;;;3.58;100.00;95291.38;1030939;28;20025;-68
2022/11/20 00:09:26;;;;;;;6.90;3.88;;;;;;;3.59;100.00;95290.38;1027517;28;20015;-69
2022/11/20 00:09:57;;;;;;;7.88;4.20;;;;;;;3.60;100.00;95289.38;1028360;28;20825;-67
2022/11/20 00:10:27;;;;;;;8.52;4.28;;;;;;;3.60;100.00;95294.56;1031859;28;20416;-68
2022/11/20 00:11:01;;;;;;;7.72;4.68;;;;;;;3.58;100.00;95297.34;1034841;28;20374;-67
2022/11/20 00:11:32;;;;;;;8.50;4.32;;;;;;;3.57;100.00;95295.00;1033894;28;20100;-68
2022/11/20 00:12:03;;;;;;;7.10;4.30;;;;;;;3.59;100.00;95293.78;1039967;28;20268;-68
2022/11/20 00:12:33;;;;;;;9.20;5.10;;;;;;;3.59;100.00;95292.97;1042251;28;20040;-68
2022/11/20 00:13:04;;;;;;;8.38;4.10;;;;;;;3.58;100.00;95286.97;1043204;28;20025;-68
2022/11/20 00:13:34;;;;;;;8.88;4.22;;;;;;;3.60;100.00;95291.97;1035082;28;20028;-68
2022/11/20 00:14:05;;;;;;;6.45;4.45;;;;;;;3.58;100.00;95291.38;1030721;28;20436;-68
2022/11/20 00:14:35;;;;;;;7.05;4.50;;;;;;;3.53;100.00;95290.28;1031210;28;20014;-67
2022/11/20 00:15:06;;;;;;;8.32;3.95;;;;;;;3.52;100.00;95283.53;1031293;28;20030;-69
2022/11/20 00:15:37;;;;;;;7.82;4.57;;;;;;;3.56;100.00;95293.44;1042871;28;20021;-69
2022/11/20 00:16:08;;;;;;;8.75;4.60;;;;;;;3.51;100.00;95281.94;1042429;28;20692;-68
2022/11/20 00:16:38;;;;;;;8.23;4.97;;;;;;;3.56;100.00;95290.84;1038937;28;20033;-68
2022/11/20 00:17:09;;;;;;;7.85;4.10;;;;;;;3.51;100.00;95284.53;1035052;28;20271;-68
2022/11/20 00:17:39;;;;;;;6.78;4.45;;;;;;;3.53;100.00;95295.47;1027888;28;20030;-67
2022/11/20 00:18:10;;;;;;;7.43;5.03;;;;;;;3.52;100.00;95287.91;1023264;28;20481;-68
2022/11/20 00:18:42;;;;;;;5.95;3.80;;;;;;;3.50;100.00;95290.72;1026844;28;20457;-67
2022/11/20 00:19:12;;;;;;;6.43;4.30;;;;;;;3.53;100.00;95300.66;1025488;28;20027;-68
2022/11/20 00:19:43;;;;;;;6.22;4.13;;;;;;;3.52;100.00;95288.72;1031239;28;20321;-68
2022/11/20 00:20:16;;;;;;;6.47;4.38;;;;;;;3.53;100.00;95295.47;1037886;28;21536;-68
2022/11/20 00:20:47;;;;;;;4.65;3.80;;;;;;;3.54;100.00;95294.44;1042077;28;20434;-68
2022/11/20 00:21:18;;;;;;;6.88;3.85;;;;;;;3.56;100.00;95288.25;1039663;28;20264;-68
2022/11/20 00:21:51;;;;;;;10.18;4.07;;;;;;;3.54;100.00;95286.66;1043715;28;20029;-69
2022/11/20 00:22:21;;;;;;;7.00;4.30;;;;;;;3.54;100.00;95296.25;1042963;28;20271;-69
2022/11/20 00:22:52;;;;;;;8.43;4.20;;;;;;;3.56;100.00;95290.84;1043118;28;20303;-69
2022/11/20 00:23:23;;;;;;;8.10;4.47;;;;;;;3.53;100.00;95292.88;1034960;28;20491;-68
2022/11/20 00:23:54;;;;;;;9.77;4.63;;;;;;;3.50;100.00;95284.75;1027044;28;20266;-69
2022/11/20 00:24:25;;;;;;;6.65;4.07;;;;;;;3.52;100.00;95293.91;1027012;28;20093;-68
2022/11/20 00:24:57;;;;;;;9.85;4.50;;;;;;;3.53;100.00;95290.28;1027238;28;20305;-68
2022/11/20 00:25:27;;;;;;;5.80;3.80;;;;;;;3.52;100.00;95301.69;1035508;28;20105;-68
2022/11/20 00:26:02;;;;;;;9.75;4.40;;;;;;;3.47;100.00;95287.81;1033891;28;20287;-68
2022/11/20 00:26:33;;;;;;;6.25;4.18;;;;;;;3.48;100.00;95290.16;1030897;28;20026;-68
2022/11/20 00:27:03;;;;;;;9.52;3.80;;;;;;;3.54;100.00;95302.22;1026797;28;20273;-68
2022/11/20 00:27:34;;;;;;;6.82;4.07;;;;;;;3.55;100.00;95303.00;1028404;28;20031;-69
2022/11/20 00:28:04;;;;;;;8.07;4.40;;;;;;;3.56;100.00;95296.03;1030867;28;20026;-67
2022/11/20 00:28:35;;;;;;;7.47;4.25;;;;;;;3.55;100.00;95303.00;1035100;28;20021;-70
2022/11/20 00:29:05;;;;;;;9.38;4.10;;;;;;;3.57;100.00;95300.19;1026675;28;20038;-68
2022/11/20 00:29:36;;;;;;;5.65;3.80;;;;;;;3.57;100.00;95295.00;1030513;28;20589;-68
2022/11/20 00:30:07;;;;;;;8.98;5.13;;;;;;;3.58;100.00;95301.75;1034369;28;20026;-69
2022/11/20 00:30:37;;;;;;;7.03;4.15;;;;;;;3.57;100.00;95305.38;1031478;28;20117;-68
2022/11/20 00:31:12;;;;;;;6.28;4.40;;;;;;;3.57;100.00;95300.19;1041268;28;20414;-68
2022/11/20 00:31:42;;;;;;;10.02;4.57;;;;;;;3.53;100.00;95298.06;1034914;28;20096;-67
2022/11/20 00:32:13;;;;;;;5.65;3.63;;;;;;;3.51;100.00;95307.88;1035214;28;20249;-67
2022/11/20 00:32:43;;;;;;;7.68;4.15;;;;;;;3.53;100.00;95300.66;1041866;28;20013;-68
2022/11/20 00:33:14;;;;;;;6.25;4.07;;;;;;;3.50;100.00;95298.50;1036695;28;20018;-68
2022/11/20 00:33:44;;;;;;;7.70;4.18;;;;;;;3.48;100.00;95297.94;1038627;28;20118;-67
2022/11/20 00:34:15;;;;;;;6.63;4.18;;;;;;;3.50;100.00;95301.09;1030601;28;20026;-68
2022/11/20 00:34:45;;;;;;;6.07;3.90;;;;;;;3.51;100.00;95305.28;1030673;28;20018;-67
2022/11/20 00:35:16;;;;;;;6.97;4.07;;;;;;;3.53;100.00;95307.66;1031682;28;20038;-67
2022/11/20 00:35:46;;;;;;;5.38;4.20;;;;;;;3.54;100.00;95307.41;1035067;28;20029;-67
2022/11/20 00:36:18;;;;;;;7.65;3.95;;;;;;;3.51;100.00;95296.69;1043059;28;20017;-67
2022/11/20 00:36:48;;;;;;;6.25;4.07;;;;;;;3.51;100.00;95297.50;1035166;28;20022;-68
2022/11/20 00:37:19;;;;;;;7.18;3.80;;;;;;;3.54;100.00;95304.81;1031013;28;20278;-67
2022/11/20 00:37:50;;;;;;;7.50;4.18;;;;;;;3.57;100.00;95310.56;1035120;28;20079;-68
2022/11/20 00:38:20;;;;;;;6.53;4.07;;;;;;;3.56;100.00;95302.00;1030470;28;20045;-67
2022/11/20 00:38:54;;;;;;;7.63;3.60;;;;;;;3.54;100.00;95307.41;1038942;28;20025;-69
2022/11/20 00:39:25;;;;;;;5.43;3.83;;;;;;;3.52;100.00;95304.28;1039290;28;20037;-69
2022/11/20 00:39:55;;;;;;;7.95;4.22;;;;;;;3.44;100.00;95289.03;1039322;28;20286;-70
2022/11/20 00:40:25;;;;;;;6.88;3.67;;;;;;;3.53;100.00;95303.25;1035222;28;20026;-68
2022/11/20 00:41:00;;;;;;;7.70;3.90;;;;;;;3.49;100.00;95304.72;1027277;28;20106;-68
2022/11/20 00:41:31;;;;;;;7.85;4.80;;;;;;;3.50;100.00;95298.50;1027051;28;20033;-69
2022/11/20 00:42:01;;;;;;;6.03;3.78;;;;;;;3.50;100.00;95298.50;1027599;28;20356;-69
2022/11/20 00:42:32;;;;;;;7.05;4.25;;;;;;;3.52;100.00;95300.88;1027517;28;20238;-68
2022/11/20 00:43:05;;;;;;;6.10;4.15;;;;;;;3.52;100.00;95299.09;1034869;28;20037;-68
2022/11/20 00:43:36;;;;;;;5.97;3.80;;;;;;;3.52;100.00;95306.88;1034685;28;20293;-69
2022/11/20 00:44:07;;;;;;;7.88;3.83;;;;;;;3.47;100.00;95295.59;1034811;28;20281;-68
2022/11/20 00:44:37;;;;;;;6.80;4.30;;;;;;;3.53;100.00;95305.06;1035183;28;20029;-68
2022/11/20 00:45:08;;;;;;;6.75;4.63;;;;;;;3.54;100.00;95307.41;1032181;28;20034;-68
2022/11/20 00:45:38;;;;;;;6.50;3.97;;;;;;;3.54;100.00;95304.81;1038989;28;20093;-68
2022/11/20 00:46:20;;;;;;;7.90;3.70;;;;;;;3.52;100.00;95299.09;1039241;28;20033;-68
2022/11/20 00:46:50;;;;;;;5.70;3.78;;;;;;;3.52;100.00;95299.09;1036641;28;20033;-68
2022/11/20 00:47:21;;;;;;;7.03;4.35;;;;;;;3.54;100.00;95301.44;1043369;28;20260;-69
2022/11/20 00:47:51;;;;;;;7.78;4.00;;;;;;;3.54;100.00;95307.41;1043012;28;20032;-68
2022/11/20 00:48:21;;;;;;;7.78;3.90;;;;;;;3.55;100.00;95308.19;1038749;28;20467;-67
2022/11/20 00:48:52;;;;;;;15.65;4.75;;;;;;;3.52;100.00;95304.28;1043470;28;20261;-69
2022/11/20 00:49:22;;;;;;;6.63;3.95;;;;;;;3.54;100.00;95301.44;1034798;28;20037;-68
2022/11/20 00:49:53;;;;;;;8.32;4.07;;;;;;;3.52;100.00;95304.28;1034988;28;20483;-68
2022/11/20 00:50:23;;;;;;;8.10;3.95;;;;;;;3.51;100.00;95305.28;1036392;28;20033;-69
2022/11/20 00:50:54;;;;;;;6.28;4.03;;;;;;;3.47;100.00;95304.16;1031101;28;20030;-68
2022/11/20 00:51:25;;;;;;;5.20;3.75;;;;;;;3.48;100.00;95297.94;1035266;28;20030;-68
2022/11/20 00:51:56;;;;;;;8.55;4.35;;;;;;;3.53;100.00;95298.06;1023993;28;20094;-69
2022/11/20 00:52:26;;;;;;;6.97;4.10;;;;;;;3.54;100.00;95306.63;1026281;28;20262;-67
2022/11/20 00:52:56;;;;;;;7.47;4.03;;;;;;;3.52;100.00;95304.28;1031324;28;20026;-68
2022/11/20 00:53:27;;;;;;;6.60;4.10;;;;;;;3.51;100.00;95302.66;1035139;28;20026;-67
2022/11/20 00:53:59;;;;;;;9.63;4.63;;;;;;;3.50;100.00;95306.28;1038978;28;20076;-68
2022/11/20 00:54:30;;;;;;;6.28;4.05;;;;;;;3.54;100.00;95304.03;1033536;28;20117;-67
2022/11/20 00:55:00;;;;;;;7.40;4.15;;;;;;;3.52;100.00;95299.09;1034792;28;20643;-67
2022/11/20 00:55:30;;;;;;;6.65;3.88;;;;;;;3.54;100.00;95306.63;1031325;28;20030;-66
2022/11/20 00:56:03;;;;;;;6.40;4.40;;;;;;;3.45;100.00;95292.44;1035191;28;20026;-68
2022/11/20 00:56:33;;;;;;;6.63;4.72;;;;;;;3.51;100.00;95305.28;1034759;28;20053;-68
2022/11/20 00:57:03;;;;;;;8.00;4.38;;;;;;;3.50;100.00;95306.28;1034953;28;20608;-67
2022/11/20 00:57:34;;;;;;;7.78;3.92;;;;;;;3.52;100.00;95308.66;1035009;28;20232;-68
2022/11/20 00:58:04;;;;;;;5.97;3.72;;;;;;;3.51;100.00;95302.66;1034894;28;20077;-68
2022/11/20 00:58:36;;;;;;;6.93;4.28;;;;;;;3.50;100.00;95306.28;1038983;28;20025;-68
2022/11/20 00:59:08;;;;;;;7.35;4.10;;;;;;;3.51;100.00;95307.06;1038984;28;20553;-68
2022/11/20 00:59:39;;;;;;;5.85;3.38;;;;;;;3.52;100.00;95306.06;1030916;28;20257;-67
2022/11/20 01:00:10;;;;;;;9.23;4.25;;;;;;;3.49;100.00;95307.31;1030392;28;20277;-68
2022/11/20 01:00:40;;;;;;;8.07;3.63;;;;;;;3.50;100.00;95316.66;1033297;28;20014;-67
2022/11/20 01:01:11;;;;;;;7.40;4.40;;;;;;;3.51;100.00;95310.44;1035501;28;20018;-68
2022/11/20 01:01:42;;;;;;;7.53;4.10;;;;;;;3.49;100.00;95302.13;1043137;28;20079;-67
2022/11/20 01:02:12;;;;;;;12.35;4.63;;;;;;;3.49;100.00;95304.72;1036241;28;20618;-67
2022/11/20 01:02:43;;;;;;;9.73;4.07;;;;;;;3.49;100.00;95309.13;1030852;28;20088;-68
2022/11/20 01:03:13;;;;;;;9.95;5.22;;;;;;;3.51;100.00;95309.66;1031489;28;20015;-68
2022/11/20 01:03:45;;;;;;;6.15;3.67;;;;;;;3.48;100.00;95300.53;1038670;28;20014;-67
2022/11/20 01:04:15;;;;;;;7.03;4.05;;;;;;;3.51;100.00;95312.25;1034975;28;20030;-68
2022/11/20 01:04:46;;;;;;;7.28;4.35;;;;;;;3.51;100.00;95309.66;1038883;28;21075;-68
2022/11/20 01:05:16;;;;;;;7.10;3.92;;;;;;;3.50;100.00;95308.88;1034958;28;20065;-67
2022/11/20 01:05:46;;;;;;;8.90;4.35;;;;;;;3.49;100.00;95315.09;1038283;28;20020;-68
2022/11/20 01:06:19;;;;;;;8.57;4.50;;;;;;;3.45;100.00;95310.56;1038802;28;20020;-68
2022/11/20 01:06:49;;;;;;;6.85;3.75;;;;;;;3.46;100.00;95315.56;1035120;28;20014;-68
2022/11/20 01:07:20;;;;;;;7.35;4.10;;;;;;;3.46;100.00;95307.00;1038624;28;20339;-69
2022/11/20 01:07:50;;;;;;;6.32;4.22;;;;;;;3.45;100.00;95311.38;1039440;28;20025;-68
2022/11/20 01:08:21;;;;;;;7.90;4.15;;;;;;;3.45;100.00;95311.38;1042799;28;20106;-68
2022/11/20 01:08:53;;;;;;;7.85;4.13;;;;;;;3.43;100.00;95315.22;1042407;28;20475;-67
2022/11/20 01:09:24;;;;;;;8.43;4.25;;;;;;;3.43;100.00;95310.03;1034929;28;20097;-68
2022/11/20 01:09:54;;;;;;;5.57;3.70;;;;;;;3.43;100.00;95310.03;1030878;28;20944;-69
2022/11/20 01:10:24;;;;;;;8.70;4.50;;;;;;;3.42;100.00;95314.44;1030720;28;20053;-68
2022/11/20 01:10:59;;;;;;;6.05;3.70;;;;;;;3.43;100.00;95313.41;1022905;28;20029;-69
2022/11/20 01:11:34;;;;;;;5.32;3.42;;;;;;;3.43;100.00;95312.63;1031450;28;20065;-68
2022/11/20 01:12:05;;;;;;;5.68;4.00;;;;;;;3.42;100.00;95305.84;1035043;28;20261;-68
2022/11/20 01:12:35;;;;;;;8.23;4.35;;;;;;;3.42;100.00;95314.44;1035121;28;20285;-68
2022/11/20 01:13:55;;;;;;;7.18;4.93;;;;;;;3.35;100.00;95308.56;1038997;28;20021;-71
2022/11/20 01:14:25;;;;;;;4.97;3.42;;;;;;;3.40;100.00;95315.69;1034825;28;20350;-66
2022/11/20 01:14:56;;;;;;;8.55;3.92;;;;;;;3.38;100.00;95310.69;1030991;28;20030;-68
2022/11/20 01:15:26;;;;;;;7.53;4.30;;;;;;;3.39;100.00;95319.28;1030789;28;20030;-70
2022/11/20 01:16:02;;;;;;;8.23;4.20;;;;;;;3.39;100.00;95312.28;1033951;28;20025;-70
2022/11/20 01:16:34;;;;;;;7.63;3.78;;;;;;;3.38;100.00;95313.28;1035770;28;20491;-68
2022/11/20 01:17:05;;;;;;;6.53;3.78;;;;;;;3.38;100.00;95318.47;1038669;28;20300;-68
2022/11/20 01:17:35;;;;;;;5.57;3.40;;;;;;;3.40;100.00;95315.69;1038998;28;20268;-67
2022/11/20 01:18:06;;;;;;;6.35;3.72;;;;;;;3.41;100.00;95312.84;1038844;28;20022;-66
2022/11/20 01:18:37;;;;;;;7.97;4.20;;;;;;;3.36;100.00;95302.38;1034780;28;20022;-67
2022/11/20 01:19:13;;;;;;;6.18;4.38;;;;;;;3.42;100.00;95306.66;1028127;28;20019;-68
2022/11/20 01:19:44;;;;;;;9.32;4.20;;;;;;;3.41;100.00;95306.88;1030737;28;20300;-69
2022/11/20 01:20:14;;;;;;;8.98;4.32;;;;;;;3.40;100.00;95311.28;1031374;28;20639;-68
2022/11/20 01:20:45;;;;;;;6.75;4.15;;;;;;;3.41;100.00;95310.25;1035312;28;20046;-67
2022/11/20 01:21:17;;;;;;;6.50;4.00;;;;;;;3.30;100.00;95298.09;1038685;28;20026;-67
2022/11/20 01:21:49;;;;;;;6.25;3.65;;;;;;;3.43;100.00;95310.81;1039570;28;20064;-68
2022/11/20 01:22:19;;;;;;;5.22;3.60;;;;;;;3.44;100.00;95312.38;1029373;28;20265;-69
2022/11/20 01:22:50;;;;;;;7.10;3.90;;;;;;;3.43;100.00;95313.41;1033518;28;20276;-67
2022/11/20 01:23:20;;;;;;;6.00;3.85;;;;;;;3.44;100.00;95314.19;1035320;28;20025;-68
2022/11/20 01:23:50;;;;;;;6.40;3.53;;;;;;;3.45;100.00;95318.34;1039576;28;20049;-67
2022/11/20 01:24:21;;;;;;;10.68;3.75;;;;;;;3.46;100.00;95318.16;1041519;28;20052;-68
2022/11/20 01:24:51;;;;;;;6.32;3.80;;;;;;;3.46;100.00;95314.78;1039292;28;20438;-67
2022/11/20 01:25:22;;;;;;;6.03;3.80;;;;;;;3.45;100.00;95316.56;1038970;28;20021;-68
2022/11/20 01:25:52;;;;;;;7.82;3.92;;;;;;;3.46;100.00;95318.16;1039228;28;20030;-67
2022/11/20 01:26:27;;;;;;;4.65;3.17;;;;;;;3.40;100.00;95306.09;1039252;28;20021;-67
2022/11/20 01:26:57;;;;;;;7.28;3.67;;;;;;;3.47;100.00;95311.94;1035500;28;20113;-68
2022/11/20 01:27:28;;;;;;;9.00;4.80;;;;;;;3.47;100.00;95317.13;1035784;28;20245;-67
2022/11/20 01:27:58;;;;;;;6.53;3.55;;;;;;;3.45;100.00;95313.94;1035156;28;20084;-67
2022/11/20 01:28:29;;;;;;;6.10;3.78;;;;;;;3.28;100.00;95287.16;1032023;28;20085;-68
2022/11/20 01:28:59;;;;;;;6.00;3.53;;;;;;;3.47;100.00;95313.75;1035187;28;20026;-67
2022/11/20 01:29:30;;;;;;;8.30;4.45;;;;;;;3.49;100.00;95315.09;1031207;28;20029;-67
2022/11/20 01:30:01;;;;;;;8.35;4.10;;;;;;;3.47;100.00;95319.72;1035689;28;20018;-67
2022/11/20 01:30:31;;;;;;;8.35;4.10;;;;;;;3.48;100.00;95316.09;1039386;28;20017;-66
2022/11/20 01:31:01;;;;;;;7.22;3.65;;;;;;;3.47;100.00;95313.75;1040593;28;20021;-68
2022/11/20 01:31:36;;;;;;;6.18;3.92;;;;;;;3.45;100.00;95313.16;1039457;28;20056;-68
2022/11/20 01:32:06;;;;;;;5.20;3.70;;;;;;;3.46;100.00;95314.78;1039291;28;20049;-67
2022/11/20 01:32:37;;;;;;;5.22;3.45;;;;;;;3.46;100.00;95317.38;1035008;28;20261;-67
2022/11/20 01:33:07;;;;;;;6.57;3.65;;;;;;;3.47;100.00;95317.13;1039232;28;20033;-66
2022/11/20 01:33:39;;;;;;;5.25;3.58;;;;;;;3.40;100.00;95308.69;1039414;28;20033;-67
2022/11/20 01:34:11;;;;;;;7.03;4.20;;;;;;;3.48;100.00;95313.50;1035411;28;20030;-67
2022/11/20 01:34:42;;;;;;;6.63;4.13;;;;;;;3.49;100.00;95311.72;1035280;28;20318;-67
2022/11/20 01:35:12;;;;;;;6.10;3.72;;;;;;;3.44;100.00;95309.78;1035424;28;20272;-68
2022/11/20 01:35:43;;;;;;;9.93;3.83;;;;;;;3.48;100.00;95316.09;1035978;28;20483;-68
2022/11/20 01:36:13;;;;;;;6.28;3.38;;;;;;;3.43;100.00;95310.81;1043379;28;20091;-66
2022/11/20 01:36:44;;;;;;;6.65;3.88;;;;;;;3.50;100.00;95321.06;1039510;28;20029;-67
2022/11/20 01:37:14;;;;;;;9.68;3.97;;;;;;;3.50;100.00;95319.25;1034867;28;20046;-67
2022/11/20 01:37:45;;;;;;;5.43;3.83;;;;;;;3.51;100.00;95317.44;1034974;28;20076;-69
2022/11/20 01:38:16;;;;;;;5.63;3.55;;;;;;;3.47;100.00;95313.75;1030303;28;20037;-67
2022/11/20 01:38:46;;;;;;;7.90;4.10;;;;;;;3.49;100.00;95311.72;1027332;28;20117;-68
2022/11/20 01:39:19;;;;;;;6.65;3.42;;;;;;;3.44;100.00;95306.41;1027456;28;20418;-67
2022/11/20 01:39:49;;;;;;;6.32;3.90;;;;;;;3.52;100.00;95309.47;1023578;28;20019;-67
2022/11/20 01:40:19;;;;;;;5.35;3.60;;;;;;;3.52;100.00;95316.44;1027399;28;20787;-68
2022/11/20 01:40:56;;;;;;;6.72;3.85;;;;;;;3.51;100.00;95318.22;1035604;28;20022;-67
2022/11/20 01:43:20;;;;;;;7.53;3.85;;;;;;;3.45;100.00;95319.13;1036274;28;20072;-66
2022/11/20 01:43:51;;;;;;;5.75;3.95;;;;;;;3.45;100.00;95319.13;1035691;28;20782;-68
2022/11/20 01:44:39;;;;;;;4.75;3.47;;;;;;;3.43;100.00;95318.59;1035757;28;20272;-68
2022/11/20 01:45:44;;;;;;;5.00;3.42;;;;;;;3.43;100.00;95323.78;1029311;28;20030;-68
2022/11/20 01:46:16;;;;;;;6.65;3.67;;;;;;;3.39;100.00;95320.06;1039712;28;20749;-68
2022/11/20 01:46:59;;;;;;;5.53;3.72;;;;;;;3.39;100.00;95324.47;1041650;28;20342;-68
2022/11/20 01:47:40;;;;;;;7.05;3.28;;;;;;;3.36;100.00;95323.13;1031766;28;20285;-69
2022/11/20 01:48:11;;;;;;;5.10;3.60;;;;;;;3.33;100.00;95320.97;1031605;28;20359;-68
2022/11/20 01:48:58;;;;;;;5.18;3.80;;;;;;;3.30;100.00;95322.22;1030214;28;20265;-67
2022/11/20 01:49:45;;;;;;;5.63;3.47;;;;;;;3.20;100.00;95306.44;1031346;28;20027;-69
2022/11/20 01:50:18;;;;;;;5.88;3.35;;;;;;;3.22;100.00;95319.16;1033109;28;20268;-68
2022/11/20 01:50:49;;;;;;;5.82;3.78;;;;;;;3.22;100.00;95324.34;1031119;28;20308;-67
2022/11/20 01:51:32;;;;;;;6.85;4.05;;;;;;;3.24;100.00;95320.53;1027156;28;20842;-67
2022/11/20 01:52:27;;;;;;;8.32;3.58;;;;;;;3.21;100.00;95315.00;1034634;28;20033;-68
2022/11/20 01:53:05;;;;;;;6.72;3.72;;;;;;;3.20;100.00;95329.00;1035166;28;20277;-68
2022/11/20 01:53:35;;;;;;;4.47;3.25;;;;;;;3.20;100.00;95321.22;1027561;28;20286;-68
2022/11/20 01:54:08;;;;;;;5.03;3.47;;;;;;;3.20;100.00;95331.59;1031139;28;20273;-68
2022/11/20 01:54:42;;;;;;;7.03;3.95;;;;;;;3.20;100.00;95321.22;1028421;28;20029;-68
2022/11/20 01:55:18;;;;;;;6.25;3.80;;;;;;;3.11;100.00;95307.00;1031439;28;21092;-68
2022/11/20 01:55:51;;;;;;;5.95;3.80;;;;;;;3.18;100.00;95324.00;1027264;28;20258;-67
2022/11/20 01:56:22;;;;;;;6.85;3.75;;;;;;;3.21;100.00;95328.75;1028576;28;20341;-68
2022/11/20 01:56:54;;;;;;;6.00;3.72;;;;;;;3.17;100.00;95319.84;1032314;28;20265;-67
2022/11/20 01:57:24;;;;;;;5.80;3.72;;;;;;;3.21;100.00;95328.75;1031859;28;20026;-68
2022/11/20 01:57:54;;;;;;;6.53;4.10;;;;;;;3.16;100.00;95320.88;1035162;28;20431;-69
2022/11/20 01:58:28;;;;;;;7.95;3.50;;;;;;;3.22;100.00;95326.94;1031407;28;20054;-67
2022/11/20 01:59:00;;;;;;;7.57;4.03;;;;;;;3.23;100.00;95329.31;1030787;28;20049;-67
2022/11/20 01:59:31;;;;;;;7.38;3.90;;;;;;;3.26;100.00;95335.88;1027809;28;20265;-67
2022/11/20 02:00:06;;;;;;;5.47;3.88;;;;;;;3.16;100.00;95320.88;1027293;28;20768;-67
2022/11/20 02:00:36;;;;;;;5.47;3.40;;;;;;;3.25;100.00;95331.69;1023534;28;20533;-68
2022/11/20 02:01:06;;;;;;;10.38;4.50;;;;;;;3.28;100.00;95331.22;1028026;28;20277;-68
2022/11/20 02:01:38;;;;;;;7.63;3.78;;;;;;;3.26;100.00;95330.69;1027579;28;20026;-67
2022/11/20 02:02:09;;;;;;;6.10;3.67;;;;;;;3.29;100.00;95335.41;1031233;28;20026;-67
2022/11/20 02:02:41;;;;;;;6.75;4.05;;;;;;;3.26;100.00;95331.47;1034749;28;20322;-67
2022/11/20 02:03:13;;;;;;;4.63;3.58;;;;;;;3.28;100.00;95336.41;1031495;28;20026;-67
2022/11/20 02:03:44;;;;;;;5.63;3.63;;;;;;;3.26;100.00;95330.69;1035931;28;20261;-69
2022/11/20 02:04:14;;;;;;;6.55;4.32;;;;;;;3.29;100.00;95333.59;1035238;28;20352;-69
2022/11/20 02:04:45;;;;;;;6.38;4.03;;;;;;;3.26;100.00;95330.69;1035183;28;20343;-67
2022/11/20 02:05:35;;;;;;;7.07;3.63;;;;;;;3.27;100.00;95327.06;1031230;28;20523;-67
2022/11/20 02:06:22;;;;;;;8.43;4.45;;;;;;;3.26;100.00;95331.47;1033853;28;20042;-67
2022/11/20 02:06:57;;;;;;;9.15;4.00;;;;;;;3.24;100.00;95332.69;1028211;28;20054;-68
2022/11/20 02:07:27;;;;;;;5.68;3.58;;;;;;;3.20;100.00;95322.00;1030009;28;20262;-67
2022/11/20 02:07:58;;;;;;;5.80;3.60;;;;;;;3.22;100.00;95326.94;1031271;28;20640;-68
2022/11/20 02:08:28;;;;;;;8.35;4.13;;;;;;;3.17;100.00;95321.66;1026997;28;20072;-67
2022/11/20 02:08:59;;;;;;;7.15;4.15;;;;;;;3.20;100.00;95331.59;1022986;28;20754;-68
2022/11/20 02:09:29;;;;;;;6.72;3.85;;;;;;;3.19;100.00;95327.41;1027311;28;20027;-67
2022/11/20 02:09:59;;;;;;;11.18;3.90;;;;;;;3.19;100.00;95330.78;1027166;28;20125;-66
2022/11/20 02:10:30;;;;;;;6.28;3.55;;;;;;;3.20;100.00;95329.00;1027495;28;20022;-67
2022/11/20 02:11:00;;;;;;;7.07;4.30;;;;;;;3.22;100.00;95326.94;1031183;28;20084;-67
2022/11/20 02:11:31;;;;;;;7.03;3.72;;;;;;;3.16;100.00;95320.88;1030814;28;20424;-67
2022/11/20 02:12:01;;;;;;;6.90;4.22;;;;;;;3.22;100.00;95329.53;1031179;28;20053;-67
2022/11/20 02:14:10;;;;;;;7.03;3.92;;;;;;;3.21;100.00;95333.16;1031674;28;20329;-68
2022/11/20 02:14:41;;;;;;;5.57;3.65;;;;;;;3.21;100.00;95322.78;1027815;28;20356;-68
2022/11/20 02:15:11;;;;;;;7.50;4.22;;;;;;;3.22;100.00;95332.13;1026649;28;20042;-67
2022/11/20 02:15:42;;;;;;;6.78;4.00;;;;;;;3.21;100.00;95330.56;1028796;28;20038;-67
2022/11/20 02:16:23;;;;;;;7.25;3.95;;;;;;;3.20;100.00;95332.38;1027090;28;20103;-68
2022/11/20 02:16:53;;;;;;;8.23;3.90;;;;;;;3.17;100.00;95321.66;1032203;28;20079;-67
2022/11/20 02:17:24;;;;;;;8.68;4.00;;;;;;;3.21;100.00;95327.97;1032259;28;20838;-68
2022/11/20 02:17:54;;;;;;;6.50;4.13;;;;;;;3.19;100.00;95330.00;1030614;28;20526;-71
2022/11/20 02:18:25;;;;;;;5.88;3.90;;;;;;;3.18;100.00;95325.81;1026725;28;20022;-68
2022/11/20 02:18:57;;;;;;;5.03;3.70;;;;;;;3.12;100.00;95311.16;1029384;28;20539;-68
2022/11/20 02:19:29;;;;;;;5.72;3.58;;;;;;;3.22;100.00;95329.53;1026460;28;20022;-68
2022/11/20 02:19:59;;;;;;;4.72;3.63;;;;;;;3.22;100.00;95325.16;1022223;28;20652;-68
2022/11/20 02:20:30;;;;;;;7.28;3.88;;;;;;;3.23;100.00;95331.13;1026831;28;20266;-68
2022/11/20 02:21:31;;;;;;;5.95;3.60;;;;;;;3.25;100.00;95329.09;1026669;28;20030;-67
2022/11/20 02:22:57;;;;;;;5.97;3.70;;;;;;;3.26;100.00;95335.88;1034500;28;20037;-66
2022/11/20 02:23:58;;;;;;;10.68;3.88;;;;;;;3.25;100.00;95326.50;1038493;28;20025;-68
2022/11/20 02:24:29;;;;;;;4.95;3.42;;;;;;;3.24;100.00;95330.88;1026085;28;20309;-66
2022/11/20 02:24:59;;;;;;;8.80;4.03;;;;;;;3.22;100.00;95334.72;1027163;28;20289;-67
2022/11/20 02:25:29;;;;;;;7.30;3.78;;;;;;;3.19;100.00;95330.00;1030485;28;20022;-67
2022/11/20 02:26:01;;;;;;;7.43;3.53;;;;;;;3.22;100.00;95332.94;1024366;28;20159;-67
2022/11/20 02:26:35;;;;;;;8.68;3.83;;;;;;;3.18;100.00;95329.19;1018678;29;20024;-67
2022/11/20 02:27:10;;;;;;;6.38;3.92;;;;;;;3.21;100.00;95327.97;1017073;29;20268;-66
2022/11/20 02:27:40;;;;;;;8.13;4.03;;;;;;;3.21;100.00;95333.16;1018662;29;20322;-66
2022/11/20 02:28:10;;;;;;;8.07;3.85;;;;;;;3.19;100.00;95330.78;1025174;28;20274;-67
2022/11/20 02:28:41;;;;;;;7.03;4.22;;;;;;;3.10;100.00;95316.59;1029645;28;20026;-67
2022/11/20 02:29:11;;;;;;;5.55;4.18;;;;;;;3.16;100.00;95326.06;1023301;28;20031;-68
2022/11/20 02:29:50;;;;;;;6.82;3.67;;;;;;;3.10;100.00;95316.59;1030729;28;20030;-67
2022/11/20 02:30:20;;;;;;;4.95;3.78;;;;;;;3.16;100.00;95325.28;1022731;28;20134;-67
2022/11/20 02:30:51;;;;;;;7.68;4.10;;;;;;;3.15;100.00;95329.66;1018960;29;20309;-67
2022/11/20 02:31:21;;;;;;;6.20;3.75;;;;;;;3.14;100.00;95322.88;1025804;28;19999;-66
2022/11/20 02:31:52;;;;;;;8.60;4.18;;;;;;;3.10;100.00;95324.38;1021189;28;20026;-66
2022/11/20 02:32:30;;;;;;;8.13;3.95;;;;;;;3.09;100.00;95319.41;1027109;28;20771;-68
2022/11/20 02:33:00;;;;;;;7.28;4.00;;;;;;;3.14;100.00;95322.88;1029610;28;20034;-68
2022/11/20 02:33:31;;;;;;;6.13;3.65;;;;;;;3.12;100.00;95318.94;1025619;28;20274;-66
2022/11/20 02:34:02;;;;;;;7.78;4.05;;;;;;;3.13;100.00;95318.72;1023100;28;20103;-67
2022/11/20 02:34:32;;;;;;;9.00;4.20;;;;;;;3.14;100.00;95322.09;1020328;28;20091;-67
2022/11/20 02:35:18;;;;;;;8.05;4.30;;;;;;;3.14;100.00;95322.09;1021916;28;20027;-68
2022/11/20 02:35:48;;;;;;;7.63;4.30;;;;;;;3.14;100.00;95330.66;1032121;28;20034;-68
2022/11/20 02:36:18;;;;;;;6.95;3.60;;;;;;;3.14;100.00;95322.88;1031766;28;20268;-67
2022/11/20 02:36:49;;;;;;;6.43;3.80;;;;;;;3.06;100.00;95308.47;1036339;28;20018;-67